createdAt,value
2023-10-23T00:05:30.013Z,95939.34
2023-10-23T00:11:39.407Z,95935.94
2023-10-23T00:17:47.492Z,95938.03
2023-10-23T00:23:53.258Z,95951.81
2023-10-23T00:29:59.857Z,95962.31
2023-10-23T00:36:10.821Z,95949.19
2023-10-23T00:42:12.553Z,95960.56
2023-10-23T00:48:14.238Z,95948.06
2023-10-23T00:54:16.612Z,95953.41
2023-10-23T01:00:18.502Z,95950.09
2023-10-23T01:06:20.189Z,95953.41
2023-10-23T01:12:21.851Z,95965.72
2023-10-23T01:18:23.632Z,95976.91
2023-10-23T01:24:27.408Z,95980.56
2023-10-23T01:30:29.818Z,95983.53
2023-10-23T01:36:31.479Z,95970.91
2023-10-23T01:42:33.151Z,95973.94
2023-10-23T01:48:34.814Z,95976.16
2023-10-23T01:54:36.483Z,95960.00
2023-10-23T02:00:38.155Z,95968.53
2023-10-23T02:06:39.803Z,95957.84
2023-10-23T02:12:41.475Z,95958.75
2023-10-23T02:18:43.129Z,95948.66
2023-10-23T02:24:44.807Z,95955.72
2023-10-23T02:30:46.575Z,95953.50
2023-10-23T02:36:48.777Z,95948.88
2023-10-23T02:42:50.473Z,95956.75
2023-10-23T02:48:52.343Z,95949.16
2023-10-23T02:54:54.216Z,95935.69
2023-10-23T03:00:55.985Z,95938.69
2023-10-23T03:06:57.855Z,95939.19
2023-10-23T03:12:59.566Z,95962.81
2023-10-23T03:19:01.253Z,95970.19
2023-10-23T03:25:02.956Z,95965.06
2023-10-23T03:31:04.854Z,95958.44
2023-10-23T03:37:06.416Z,95958.72
2023-10-23T03:43:08.633Z,95966.81
2023-10-23T03:49:10.254Z,95972.28
2023-10-23T03:55:11.832Z,95973.53
2023-10-23T04:01:13.938Z,95973.94
2023-10-23T04:07:15.549Z,95967.56
2023-10-23T04:13:18.058Z,95980.06
2023-10-23T04:19:19.653Z,95966.88
2023-10-23T04:25:21.619Z,95974.97
2023-10-23T04:31:23.247Z,95953.97
2023-10-23T04:37:25.028Z,95954.38
2023-10-23T04:43:27.577Z,95955.63
2023-10-23T04:49:29.445Z,95953.25
2023-10-23T04:55:37.625Z,95955.25
2023-10-23T05:01:39.519Z,95945.25
2023-10-23T05:07:41.227Z,95949.84
2023-10-23T05:13:42.901Z,95942.25
2023-10-23T05:19:47.986Z,95932.91
2023-10-23T05:25:49.684Z,95932.22
2023-10-23T05:31:51.290Z,95934.78
2023-10-23T05:37:52.869Z,95938.13
2023-10-23T05:43:55.124Z,95941.09
2023-10-23T05:49:57.424Z,95946.22
2023-10-23T05:56:06.677Z,95957.81
2023-10-23T06:02:08.233Z,95956.34
2023-10-23T06:08:10.394Z,95963.22
2023-10-23T06:14:12.033Z,95981.88
2023-10-23T06:20:13.710Z,95974.28
2023-10-23T06:26:15.286Z,95972.34
2023-10-23T06:32:19.696Z,95980.75
2023-10-23T06:38:21.313Z,95975.69
2023-10-23T06:44:22.944Z,95976.81
2023-10-23T06:50:25.165Z,95985.47
2023-10-23T06:56:26.795Z,95974.38
2023-10-23T07:02:28.408Z,95961.19
2023-10-23T07:08:30.008Z,95949.47
2023-10-23T07:14:31.564Z,95949.88
2023-10-23T07:20:33.170Z,95950.69
2023-10-23T07:26:34.879Z,95962.47
2023-10-23T07:32:36.994Z,95944.06
2023-10-23T07:38:43.425Z,95938.72
2023-10-23T07:44:45.087Z,95947.91
2023-10-23T07:50:47.288Z,95929.16
2023-10-23T07:56:48.884Z,95923.66
2023-10-23T08:02:50.474Z,95925.13
2023-10-23T08:08:52.127Z,95907.91
2023-10-23T08:14:53.815Z,95897.47
2023-10-23T08:20:55.541Z,95912.97
2023-10-23T08:26:57.127Z,95907.97
2023-10-23T08:32:58.830Z,95906.50
2023-10-23T08:39:00.697Z,95902.19
2023-10-23T08:45:03.493Z,95884.84
2023-10-23T08:51:08.196Z,95877.09
2023-10-23T08:57:11.585Z,95875.88
2023-10-23T09:03:15.324Z,95861.28
2023-10-23T09:09:19.943Z,95849.03
2023-10-23T09:15:22.350Z,95840.75
2023-10-23T09:21:24.125Z,95815.16
2023-10-23T09:27:25.905Z,95799.38
2023-10-23T09:33:28.945Z,95811.94
2023-10-23T09:39:30.652Z,95807.38
2023-10-23T09:45:33.232Z,95824.38
2023-10-23T09:51:39.239Z,95827.25
2023-10-23T09:57:45.606Z,95827.19
2023-10-23T10:03:57.484Z,95824.06
2023-10-23T10:10:10.075Z,95818.28
2023-10-23T10:16:14.251Z,95820.59
2023-10-23T10:22:26.841Z,95804.22
2023-10-23T10:28:31.597Z,95792.84
2023-10-23T10:34:39.098Z,95782.31
2023-10-23T10:41:04.104Z,95760.63
2023-10-23T10:47:14.003Z,95752.84
2023-10-23T10:53:16.099Z,95744.09
2023-10-23T10:59:24.610Z,95736.56
2023-10-23T11:05:26.636Z,95741.13
2023-10-23T11:11:28.751Z,95741.19
2023-10-23T11:17:30.549Z,95718.38
2023-10-23T11:23:32.416Z,95725.56
2023-10-23T11:29:41.251Z,95721.94
2023-10-23T11:35:43.486Z,95729.06
2023-10-23T11:41:55.197Z,95713.75
2023-10-23T11:47:56.847Z,95700.16
2023-10-23T11:53:58.758Z,95682.03
2023-10-23T12:00:13.162Z,95676.94
2023-10-23T12:06:15.781Z,95683.88
2023-10-23T12:12:17.401Z,95699.84
2023-10-23T12:18:19.138Z,95684.69
2023-10-23T12:24:21.341Z,95667.09
2023-10-23T12:30:25.825Z,95680.97
2023-10-23T12:36:29.771Z,95678.50
2023-10-23T12:42:31.473Z,95665.41
2023-10-23T12:48:33.114Z,95657.59
2023-10-23T12:54:34.868Z,95652.34
2023-10-23T13:00:37.867Z,95647.31
2023-10-23T13:06:39.452Z,95634.31
2023-10-23T13:12:41.053Z,95632.88
2023-10-23T13:18:50.448Z,95640.19
2023-10-23T13:24:55.594Z,95624.56
2023-10-23T13:30:57.320Z,95611.53
2023-10-23T13:36:59.541Z,95609.56
2023-10-23T13:43:01.719Z,95591.13
2023-10-23T13:49:03.940Z,95591.13
2023-10-23T13:55:06.006Z,95577.91
2023-10-23T14:01:08.042Z,95544.63
2023-10-23T14:07:13.107Z,95537.91
2023-10-23T14:13:15.250Z,95549.47
2023-10-23T14:19:25.665Z,95550.88
2023-10-23T14:25:35.775Z,95540.03
2023-10-23T14:31:41.416Z,95534.81
2023-10-23T14:37:43.075Z,95545.75
2023-10-23T14:43:45.593Z,95532.88
2023-10-23T14:49:47.360Z,95523.56
2023-10-23T14:55:49.038Z,95503.78
2023-10-23T15:01:51.266Z,95489.72
2023-10-23T15:07:53.121Z,95487.72
2023-10-23T15:13:54.720Z,95470.69
2023-10-23T15:19:56.399Z,95478.06
2023-10-23T15:26:01.382Z,95463.78
2023-10-23T15:32:03.288Z,95467.69
2023-10-23T15:38:05.984Z,95453.09
2023-10-23T15:44:07.437Z,95444.72
2023-10-23T15:50:09.410Z,95444.03
2023-10-23T15:56:11.196Z,95428.66
2023-10-23T16:02:12.945Z,95409.91
2023-10-23T16:08:14.936Z,95401.34
2023-10-23T16:14:16.581Z,95413.09
2023-10-23T16:20:18.172Z,95417.50
2023-10-23T16:26:19.802Z,95415.56
2023-10-23T16:32:21.846Z,95408.66
2023-10-23T16:38:23.465Z,95392.44
2023-10-23T16:44:25.065Z,95403.09
2023-10-23T16:50:27.263Z,95416.69
2023-10-23T16:56:28.931Z,95423.25
2023-10-23T17:02:31.484Z,95410.72
2023-10-23T17:08:33.709Z,95409.63
2023-10-23T17:14:35.548Z,95410.03
2023-10-23T17:20:42.006Z,95397.31
2023-10-23T17:26:43.640Z,95399.81
2023-10-23T17:32:45.671Z,95375.66
2023-10-23T17:38:48.101Z,95378.00
2023-10-23T17:44:53.940Z,95377.72
2023-10-23T17:51:04.492Z,95363.28
2023-10-23T17:57:07.132Z,95367.66
2023-10-23T18:03:08.964Z,95368.19
2023-10-23T18:09:10.898Z,95349.81
2023-10-23T18:15:13.741Z,95344.50
2023-10-23T18:21:22.371Z,95341.50
2023-10-23T18:27:27.285Z,95340.69
2023-10-23T18:33:29.228Z,95330.56
2023-10-23T18:39:32.938Z,95335.47
2023-10-23T18:45:34.638Z,95330.13
2023-10-23T18:51:41.375Z,95327.94
2023-10-23T18:57:43.032Z,95317.28
2023-10-23T19:03:44.681Z,95312.78
2023-10-23T19:09:46.734Z,95302.00
2023-10-23T19:16:03.861Z,95307.69
2023-10-23T19:22:08.452Z,95309.16
2023-10-23T19:28:12.256Z,95305.47
2023-10-23T19:34:14.112Z,95306.41
2023-10-23T19:40:17.244Z,95302.59
2023-10-23T19:46:20.185Z,95302.84
2023-10-23T19:52:22.299Z,95289.66
2023-10-23T19:58:24.167Z,95297.81
2023-10-23T20:04:26.429Z,95298.75
2023-10-23T20:11:29.550Z,95310.56
2023-10-23T20:17:31.216Z,95310.81
2023-10-23T20:23:36.164Z,95303.34
2023-10-23T20:29:38.769Z,95318.84
2023-10-23T20:35:44.947Z,95319.78
2023-10-23T20:41:48.853Z,95319.34
2023-10-23T20:47:50.456Z,95321.47
2023-10-23T20:53:52.065Z,95310.03
2023-10-23T20:59:53.722Z,95301.03
2023-10-23T21:05:59.940Z,95301.53
2023-10-23T21:12:01.577Z,95317.28
2023-10-23T21:18:03.333Z,95304.91
2023-10-23T21:24:05.492Z,95305.13
2023-10-23T21:30:07.718Z,95293.66
2023-10-23T21:36:12.370Z,95308.47
2023-10-23T21:42:15.599Z,95300.16
2023-10-23T21:48:17.184Z,95301.00
2023-10-23T21:54:19.395Z,95295.94
2023-10-23T22:00:30.531Z,95309.09
2023-10-23T22:06:32.489Z,95300.69
2023-10-23T22:12:34.369Z,95287.06
2023-10-23T22:18:36.050Z,95293.19
2023-10-23T22:24:37.655Z,95293.28
2023-10-23T22:30:39.403Z,95296.81
2023-10-23T22:36:41.017Z,95305.38
2023-10-23T22:42:43.174Z,95308.06
2023-10-23T22:48:44.783Z,95321.25
2023-10-23T22:54:46.773Z,95337.09
2023-10-23T23:00:48.505Z,95346.84
2023-10-23T23:06:55.717Z,95371.53
2023-10-23T23:12:57.618Z,95370.94
2023-10-23T23:19:01.480Z,95372.84
2023-10-23T23:25:03.156Z,95369.81
2023-10-23T23:31:04.886Z,95364.03
2023-10-23T23:37:06.615Z,95350.63
2023-10-23T23:43:09.081Z,95333.16
2023-10-23T23:49:10.852Z,95338.06
2023-10-23T23:55:12.487Z,95344.75
